Time;durP1;ratioP1;P1;durP2;ratioP2;P2;SDS_P1;SDS_P2;PMS_P1;PMS_P2;Temp;Humidity;BMP_temperature;BMP_pressure;BME280_temperature;BME280_humidity;BME280_pressure;Samples;Min_cycle;Max_cycle;Signal;HPM_P1;HPM_P2
2022/06/28 00:03:43;;;;;;;5.70;5.20;;;;;;;22.57;50.80;99847.77;214201;1274;140640;-65
2022/06/28 00:08:47;;;;;;;4.80;4.30;;;;;;;22.45;51.15;99848.17;213775;1274;139563;-64
2022/06/28 00:14:00;;;;;;;5.40;4.30;;;;;;;22.32;51.46;99844.63;213736;1274;140053;-63
2022/06/28 00:19:06;;;;;;;5.50;4.80;;;;;;;22.18;51.75;99834.73;213414;1274;141005;-65
2022/06/28 00:24:11;;;;;;;5.00;4.60;;;;;;;22.05;52.12;99824.95;213477;1274;140169;-63
2022/06/28 00:29:16;;;;;;;6.90;4.80;;;;;;;21.96;52.38;99830.30;214245;1274;139817;-64
2022/06/28 00:34:21;;;;;;;5.10;4.50;;;;;;;21.92;52.69;99833.33;214035;1274;139567;-63
2022/06/28 00:39:25;;;;;;;4.60;4.30;;;;;;;21.89;52.82;99831.61;213721;1274;139177;-64
2022/06/28 00:44:31;;;;;;;4.30;3.90;;;;;;;21.78;53.08;99829.60;213946;1274;688366;-63
2022/06/28 00:49:40;;;;;;;6.90;4.10;;;;;;;21.71;53.25;99828.36;215549;1274;139480;-63
2022/06/28 00:54:43;;;;;;;4.80;4.40;;;;;;;21.68;53.53;99820.52;214769;1274;139672;-65
2022/06/28 00:59:47;;;;;;;4.40;4.10;;;;;;;21.67;53.68;99820.78;215879;1274;139504;-64
2022/06/28 01:04:51;;;;;;;6.90;4.60;;;;;;;21.64;53.88;99822.21;214879;1274;139845;-63
2022/06/28 01:09:55;;;;;;;4.60;4.10;;;;;;;21.59;54.01;99818.90;216101;1274;140207;-63
2022/06/28 01:15:00;;;;;;;7.10;4.20;;;;;;;21.54;54.17;99822.63;215910;1274;139661;-63
2022/06/28 01:20:04;;;;;;;7.50;5.00;;;;;;;21.50;54.33;99819.84;215154;1274;139485;-63
2022/06/28 01:25:10;;;;;;;4.40;4.00;;;;;;;21.46;54.51;99817.38;215373;1274;141819;-62
2022/06/28 01:30:15;;;;;;;5.70;5.00;;;;;;;21.39;54.59;99826.66;213745;1274;151450;-64
2022/06/28 01:35:20;;;;;;;5.00;4.60;;;;;;;21.34;54.83;99828.98;214657;1274;140024;-65
2022/06/28 01:40:24;;;;;;;4.90;4.50;;;;;;;21.31;55.01;99828.89;215475;1274;141052;-65
2022/06/28 01:45:29;;;;;;;5.50;5.10;;;;;;;21.29;55.23;99830.93;213645;1274;140837;-64
2022/06/28 01:50:35;;;;;;;5.60;4.90;;;;;;;21.28;55.22;99828.56;214156;1274;151506;-64
2022/06/28 01:55:40;;;;;;;5.30;4.70;;;;;;;21.27;55.43;99827.23;214077;1274;142883;-65
2022/06/28 02:00:43;;;;;;;7.30;4.30;;;;;;;21.26;55.64;99825.95;213875;1273;140635;-66
2022/06/28 02:05:46;;;;;;;5.20;4.80;;;;;;;21.25;55.75;99824.58;213209;1274;141567;-64
2022/06/28 02:10:50;;;;;;;12.00;5.90;;;;;;;21.23;55.85;99825.63;213716;1274;141362;-64
2022/06/28 02:15:54;;;;;;;6.50;5.60;;;;;;;21.24;55.92;99825.61;213469;1274;141087;-66
2022/06/28 02:20:58;;;;;;;7.60;4.70;;;;;;;21.20;56.01;99822.31;213456;1274;140577;-66
2022/06/28 02:26:02;;;;;;;10.70;5.10;;;;;;;21.18;56.08;99829.16;214451;1274;141455;-66
2022/06/28 02:31:13;;;;;;;4.50;4.20;;;;;;;21.17;56.15;99829.88;214815;1274;141334;-65
2022/06/28 02:41:39;;;;;;;5.10;4.60;;;;;;;21.09;56.40;99824.52;213804;1274;141336;-66
2022/06/28 02:46:42;;;;;;;5.20;4.80;;;;;;;21.02;56.60;99825.06;214259;1274;140139;-65
2022/06/28 02:51:46;;;;;;;7.60;5.10;;;;;;;20.95;56.83;99830.39;215674;1273;139091;-66
2022/06/28 02:56:51;;;;;;;7.40;5.30;;;;;;;20.92;57.15;99834.18;215522;1274;140902;-65
2022/06/28 03:01:55;;;;;;;5.70;5.20;;;;;;;20.91;57.26;99835.45;215586;1272;139753;-66
2022/06/28 03:07:00;;;;;;;5.60;5.10;;;;;;;20.90;57.42;99834.98;215933;1274;139678;-66
2022/06/28 03:12:06;;;;;;;6.50;5.20;;;;;;;20.90;57.64;99836.45;215973;1274;139405;-66
2022/06/28 03:17:11;;;;;;;4.90;4.30;;;;;;;20.96;57.67;99843.92;215966;1274;139784;-65
2022/06/28 03:22:15;;;;;;;9.60;6.30;;;;;;;21.05;57.66;99836.23;215880;1276;140084;-66
2022/06/28 03:27:20;;;;;;;9.90;5.80;;;;;;;21.14;57.83;99836.61;216077;1274;141588;-66
2022/06/28 03:32:24;;;;;;;7.00;4.60;;;;;;;21.26;57.78;99836.41;215033;1274;140602;-65
2022/06/28 03:37:29;;;;;;;6.00;5.40;;;;;;;21.42;57.76;99838.02;215341;1274;141959;-65
2022/06/28 03:42:32;;;;;;;6.30;5.30;;;;;;;21.54;57.74;99825.46;214340;1274;139835;-65
2022/06/28 03:47:36;;;;;;;5.60;5.00;;;;;;;21.63;57.79;99826.94;214778;1275;141709;-65
2022/06/28 03:52:40;;;;;;;5.30;4.90;;;;;;;21.73;57.71;99825.06;214691;1274;140998;-65
2022/06/28 03:57:43;;;;;;;5.60;5.20;;;;;;;22.00;57.70;99825.55;214783;1274;144031;-65
2022/06/28 04:02:47;;;;;;;8.10;6.00;;;;;;;22.42;57.43;99822.55;214790;1274;140975;-65
2022/06/28 04:07:51;;;;;;;6.40;5.90;;;;;;;22.72;57.21;99818.63;214226;1274;152593;-65
2022/06/28 04:12:55;;;;;;;6.00;4.70;;;;;;;22.96;56.99;99817.93;214307;1274;139107;-65
2022/06/28 04:17:59;;;;;;;6.90;5.80;;;;;;;23.22;56.58;99812.83;214028;1274;139794;-65
2022/06/28 04:23:03;;;;;;;8.50;6.20;;;;;;;23.46;56.36;99808.52;213112;1275;142555;-66
2022/06/28 04:28:08;;;;;;;5.60;5.20;;;;;;;23.72;56.11;99807.39;214504;1274;141245;-65
2022/06/28 04:33:13;;;;;;;9.30;7.00;;;;;;;23.70;55.67;99811.04;214060;1274;140896;-65
2022/06/28 04:38:16;;;;;;;8.40;5.40;;;;;;;23.54;55.69;99813.38;214148;1274;141249;-65
2022/06/28 04:43:20;;;;;;;6.20;5.70;;;;;;;23.42;55.82;99806.44;215296;1274;140206;-66
2022/06/28 04:48:24;;;;;;;7.50;5.40;;;;;;;23.34;55.92;99805.08;214318;1274;140375;-65
2022/06/28 04:53:28;;;;;;;6.60;6.00;;;;;;;23.36;55.85;99820.80;215203;1274;140427;-65
2022/06/28 04:58:33;;;;;;;7.80;6.70;;;;;;;23.39;56.05;99831.27;215293;1274;140965;-65
2022/06/28 05:03:38;;;;;;;7.10;6.40;;;;;;;23.48;56.09;99838.52;215794;1274;141463;-65
2022/06/28 05:08:42;;;;;;;6.70;5.90;;;;;;;23.73;56.55;99842.39;215790;1274;140033;-65
2022/06/28 05:13:46;;;;;;;11.40;5.70;;;;;;;25.29;54.62;99835.79;215448;1274;139480;-65
2022/06/28 05:18:51;;;;;;;10.30;7.20;;;;;;;26.03;53.32;99832.84;215772;1274;139419;-65
2022/06/28 05:23:55;;;;;;;6.60;6.00;;;;;;;25.55;53.76;99837.42;215757;1274;139919;-65
2022/06/28 05:28:59;;;;;;;9.40;7.10;;;;;;;25.22;53.58;99846.73;215147;1274;142173;-65
2022/06/28 05:34:04;;;;;;;10.10;6.70;;;;;;;24.93;53.88;99850.23;216081;1274;139361;-65
2022/06/28 05:39:12;;;;;;;13.00;6.80;;;;;;;24.64;54.15;99852.05;214529;1274;140810;-66
2022/06/28 05:44:22;;;;;;;11.00;6.80;;;;;;;24.50;54.53;99852.72;214474;1274;140018;-65
2022/06/28 05:49:27;;;;;;;8.50;5.90;;;;;;;24.57;54.81;99865.09;214280;1274;139897;-64
2022/06/28 05:54:30;;;;;;;7.10;6.50;;;;;;;24.74;54.75;99880.28;214965;1274;139286;-65
2022/06/28 05:59:34;;;;;;;12.20;6.40;;;;;;;24.90;54.22;99888.51;215090;1274;140265;-65
2022/06/28 06:04:40;;;;;;;7.40;6.70;;;;;;;25.43;53.74;99891.39;214795;1274;140669;-66
2022/06/28 06:09:45;;;;;;;9.70;6.30;;;;;;;26.71;52.60;99894.16;213281;1274;139991;-65
2022/06/28 06:14:49;;;;;;;8.10;7.40;;;;;;;28.80;50.50;99893.81;213810;1274;141463;-65
2022/06/28 06:19:52;;;;;;;6.20;5.50;;;;;;;31.22;47.22;99891.29;213607;1274;141087;-66
2022/06/28 06:24:57;;;;;;;6.20;5.10;;;;;;;33.36;44.21;99892.42;213249;1274;141247;-67
2022/06/28 06:30:03;;;;;;;7.60;4.60;;;;;;;35.41;42.04;99896.42;213230;1273;141607;-66
2022/06/28 06:35:07;;;;;;;5.20;4.80;;;;;;;36.59;38.98;99903.02;215615;1275;139281;-66
2022/06/28 06:40:11;;;;;;;5.80;5.10;;;;;;;37.84;37.69;99902.43;214166;1274;139886;-66
2022/06/28 06:45:16;;;;;;;5.00;4.70;;;;;;;39.23;35.44;99904.38;214276;1274;140593;-67
2022/06/28 06:50:22;;;;;;;8.10;5.20;;;;;;;40.28;33.41;99905.73;213702;1273;139510;-66
2022/06/28 06:55:26;;;;;;;4.80;4.40;;;;;;;41.19;32.58;99908.30;214860;1274;139301;-67
2022/06/28 07:00:30;;;;;;;5.20;4.40;;;;;;;41.61;31.11;99908.34;215137;1274;246251;-67
2022/06/28 07:05:35;;;;;;;6.00;4.50;;;;;;;41.53;30.55;99904.55;216074;1274;138873;-67
2022/06/28 07:10:41;;;;;;;5.50;5.00;;;;;;;42.08;29.87;99906.87;215725;1274;139107;-67
2022/06/28 07:15:45;;;;;;;5.30;4.80;;;;;;;42.48;29.16;99904.94;216270;1274;139460;-68
2022/06/28 07:20:54;;;;;;;5.70;4.70;;;;;;;42.71;28.55;99899.02;216058;1275;140269;-68
2022/06/28 07:26:01;;;;;;;6.70;6.10;;;;;;;42.88;28.17;99895.27;215110;1274;140174;-67
2022/06/28 07:31:07;;;;;;;5.40;4.90;;;;;;;42.37;28.28;99883.98;214488;1274;140225;-66
2022/06/28 07:36:15;;;;;;;6.20;5.60;;;;;;;41.75;28.28;99888.10;215198;1274;142489;-67
2022/06/28 07:41:21;;;;;;;6.50;6.00;;;;;;;41.13;28.57;99893.11;213570;1274;141209;-67
2022/06/28 07:46:27;;;;;;;7.10;6.00;;;;;;;40.69;29.48;99906.17;213531;1274;141536;-65
2022/06/28 07:56:55;;;;;;;7.30;6.80;;;;;;;39.47;30.73;99901.43;214644;1274;139522;-67
2022/06/28 08:02:00;;;;;;;8.70;6.80;;;;;;;39.08;31.33;99906.88;214398;1274;140147;-67
2022/06/28 08:07:04;;;;;;;7.90;5.30;;;;;;;38.86;32.65;99911.44;214507;1274;139333;-66
2022/06/28 08:12:08;;;;;;;6.60;6.20;;;;;;;38.50;31.90;99911.42;213760;1275;140115;-67
2022/06/28 08:17:13;;;;;;;7.60;6.80;;;;;;;37.66;32.75;99906.54;213304;1274;141118;-66
2022/06/28 08:22:17;;;;;;;11.10;7.40;;;;;;;37.08;33.28;99919.63;213653;1274;140260;-66
2022/06/28 08:27:20;;;;;;;;;;;;;;;36.73;34.10;99917.63;214357;1274;142515;-66
2022/06/28 08:32:25;;;;;;;8.80;7.50;;;;;;;36.55;34.67;99920.04;214729;1274;127311;-66
2022/06/28 08:37:29;;;;;;;8.70;8.10;;;;;;;36.53;34.92;99918.70;213909;1274;140373;-66
2022/06/28 08:42:34;;;;;;;;;;;;;;;36.38;34.77;99919.27;214208;1274;141278;-66
2022/06/28 08:47:42;;;;;;;11.30;8.40;;;;;;;36.05;35.14;99912.56;215724;1274;125723;-66
2022/06/28 08:52:48;;;;;;;9.90;8.30;;;;;;;35.87;36.13;99918.49;214937;1274;141596;-67
2022/06/28 08:57:55;;;;;;;7.60;7.00;;;;;;;35.91;36.49;99926.17;215960;1273;140342;-67
2022/06/28 09:02:59;;;;;;;9.10;8.40;;;;;;;35.95;36.41;99934.88;215883;1274;140439;-66
2022/06/28 09:08:03;;;;;;;10.20;9.20;;;;;;;35.99;36.49;99934.80;215450;1274;141290;-66
2022/06/28 09:13:12;;;;;;;9.50;8.80;;;;;;;35.89;36.65;99932.05;215976;1274;140085;-68
2022/06/28 09:18:17;;;;;;;10.50;9.70;;;;;;;35.85;37.09;99938.23;216095;1274;139423;-69
2022/06/28 09:23:33;;;;;;;10.70;9.80;;;;;;;35.90;37.16;99951.30;215692;1274;139873;-68
2022/06/28 09:28:46;;;;;;;10.80;9.80;;;;;;;35.73;37.39;99957.03;214829;1273;139412;-67
2022/06/28 09:34:00;;;;;;;11.10;10.20;;;;;;;35.73;37.38;99963.77;214532;1274;139530;-67
2022/06/28 09:39:16;;;;;;;11.30;10.30;;;;;;;35.84;37.87;99962.88;214215;1275;140199;-66
2022/06/28 09:44:26;;;;;;;12.60;11.40;;;;;;;35.74;37.76;99965.42;214642;1275;140567;-67
2022/06/28 09:49:32;;;;;;;10.90;10.00;;;;;;;35.56;37.90;99966.08;214129;1274;139581;-65
2022/06/28 09:54:41;;;;;;;13.50;12.20;;;;;;;34.98;38.34;99965.16;214009;1274;141923;-66
2022/06/28 09:59:46;;;;;;;17.70;13.00;;;;;;;34.76;38.88;99967.34;214700;1274;139424;-66
2022/06/28 10:04:51;;;;;;;13.70;12.50;;;;;;;34.49;39.04;99970.41;213312;1274;139606;-66
2022/06/28 10:09:55;;;;;;;16.20;14.90;;;;;;;34.71;39.87;99965.91;214298;1274;150847;-66
2022/06/28 10:15:08;;;;;;;16.60;13.90;;;;;;;34.81;39.39;99973.04;213986;1274;140303;-65
2022/06/28 10:20:18;;;;;;;14.40;13.10;;;;;;;34.44;39.94;99974.83;213676;1276;141517;-64
2022/06/28 10:25:24;;;;;;;17.90;14.00;;;;;;;34.42;40.16;99973.40;213425;1273;140280;-66
2022/06/28 10:30:29;;;;;;;14.90;13.50;;;;;;;34.48;39.74;99972.40;213806;1275;139960;-66
2022/06/28 10:35:36;;;;;;;16.10;13.10;;;;;;;34.77;40.08;99977.23;214658;1274;139810;-66
2022/06/28 10:40:49;;;;;;;14.90;13.50;;;;;;;35.08;39.98;99970.27;214750;1274;142106;-66
2022/06/28 10:46:04;;;;;;;16.00;14.30;;;;;;;35.30;39.76;99968.70;214145;1274;140295;-66
2022/06/28 10:51:11;;;;;;;15.20;13.70;;;;;;;35.10;39.38;99968.91;215189;1274;139834;-66
2022/06/28 10:56:16;;;;;;;14.00;12.70;;;;;;;34.90;39.49;99965.48;213100;1274;141658;-66
2022/06/28 11:01:43;;;;;;;14.00;12.80;;;;;;;34.41;39.44;99972.58;213195;1274;139605;-66
2022/06/28 11:07:06;;;;;;;13.50;12.20;;;;;;;33.52;39.80;99974.48;215381;1274;141429;-66
2022/06/28 11:12:17;;;;;;;14.40;13.10;;;;;;;33.50;40.83;99975.83;215917;1274;140639;-68
2022/06/28 11:17:33;;;;;;;14.30;13.20;;;;;;;33.65;41.13;99980.02;215065;1274;140509;-66
2022/06/28 11:22:47;;;;;;;14.60;13.10;;;;;;;33.70;41.47;99983.47;215919;1274;139650;-68
2022/06/28 11:27:59;;;;;;;13.60;12.50;;;;;;;33.29;41.10;99991.34;215988;1274;139770;-69
2022/06/28 11:33:08;;;;;;;12.00;10.40;;;;;;;33.37;41.60;99992.52;215000;1274;139984;-67
2022/06/28 11:38:15;;;;;;;12.40;11.30;;;;;;;33.24;41.40;99999.11;215080;1274;139457;-67
2022/06/28 11:43:26;;;;;;;15.30;10.20;;;;;;;33.25;41.75;100007.10;214548;1274;140183;-65
2022/06/28 11:48:32;;;;;;;8.80;7.90;;;;;;;33.22;41.84;100014.88;213781;1274;139584;-65
2022/06/28 11:53:44;;;;;;;16.20;9.30;;;;;;;32.94;41.63;100025.09;215051;1274;221254;-66
2022/06/28 11:58:51;;;;;;;8.80;8.00;;;;;;;32.67;41.88;100027.77;213420;1274;139400;-66
2022/06/28 12:03:59;;;;;;;7.60;7.10;;;;;;;32.38;41.96;100029.20;214462;1274;140277;-65
2022/06/28 12:09:08;;;;;;;7.90;7.20;;;;;;;31.95;41.91;100034.63;214459;1274;139366;-66
2022/06/28 12:14:18;;;;;;;7.70;6.80;;;;;;;31.76;42.03;100029.54;213639;1275;139871;-65
2022/06/28 12:19:31;;;;;;;10.80;9.10;;;;;;;31.59;42.26;100038.70;213716;1275;139735;-65
2022/06/28 12:25:08;;;;;;;13.10;11.60;;;;;;;31.06;42.94;100048.41;213905;1275;140337;-65
2022/06/28 12:30:16;;;;;;;11.80;10.20;;;;;;;30.55;44.20;100056.41;213989;1274;141712;-65
2022/06/28 12:35:21;;;;;;;13.30;9.20;;;;;;;30.08;44.99;100072.15;214098;1274;141265;-65
2022/06/28 12:40:26;;;;;;;10.70;9.70;;;;;;;29.60;45.27;100078.69;214581;1275;142866;-65
2022/06/28 12:45:31;;;;;;;11.20;10.20;;;;;;;29.25;45.93;100080.25;213734;1274;394547;-65
2022/06/28 12:50:36;;;;;;;11.50;9.60;;;;;;;29.28;46.75;100077.56;213152;1274;142573;-65
2022/06/28 12:55:41;;;;;;;;;;;;;;;29.61;47.11;100072.11;214986;1274;139881;-66
2022/06/28 13:00:47;;;;;;;11.90;10.70;;;;;;;29.76;47.32;100081.90;215499;1274;126837;-66
2022/06/28 13:05:53;;;;;;;14.50;9.80;;;;;;;29.72;47.48;100085.42;214740;1275;140369;-65
2022/06/28 13:11:03;;;;;;;10.80;9.80;;;;;;;29.72;47.70;100097.34;214448;1274;141874;-65
2022/06/28 13:16:09;;;;;;;10.30;9.20;;;;;;;29.71;48.01;100110.67;215629;1276;141941;-64
2022/06/28 13:21:18;;;;;;;10.90;9.90;;;;;;;29.39;48.16;100114.35;215881;1274;140549;-65
2022/06/28 13:26:23;;;;;;;12.10;10.80;;;;;;;29.05;48.47;100126.58;215762;1274;141601;-67
2022/06/28 13:31:27;;;;;;;8.90;7.90;;;;;;;28.61;49.20;100126.61;214611;1274;140776;-63
2022/06/28 13:36:32;;;;;;;8.90;8.10;;;;;;;28.33;49.60;100116.11;214657;1274;141120;-66
2022/06/28 13:41:37;;;;;;;10.70;8.40;;;;;;;28.25;50.33;100107.70;214324;1274;142546;-64
2022/06/28 13:46:44;;;;;;;9.90;8.80;;;;;;;28.17;50.53;100104.20;213283;1274;143229;-64
2022/06/28 13:51:56;;;;;;;8.60;7.50;;;;;;;28.15;50.85;100101.89;214364;1274;141503;-65
2022/06/28 13:57:02;;;;;;;12.20;6.50;;;;;;;28.13;50.40;100101.51;213098;1274;142334;-64
2022/06/28 14:02:06;;;;;;;7.50;6.80;;;;;;;28.00;50.17;100105.30;213300;1274;141383;-63
2022/06/28 14:07:10;;;;;;;7.20;6.50;;;;;;;27.86;50.46;100106.82;213898;1274;141191;-63
2022/06/28 14:12:15;;;;;;;5.10;4.60;;;;;;;27.63;50.66;100108.61;213052;1274;140596;-63
2022/06/28 14:17:19;;;;;;;4.70;4.30;;;;;;;27.30;50.56;100116.45;214447;1274;140201;-63
2022/06/28 14:22:23;;;;;;;3.80;3.50;;;;;;;27.00;50.57;100121.85;214157;1274;139663;-63
2022/06/28 14:27:41;;;;;;;3.30;3.00;;;;;;;26.87;50.92;100122.30;213068;1275;140656;-66
2022/06/28 14:33:03;;;;;;;4.40;3.40;;;;;;;26.65;51.06;100122.23;214409;1275;140618;-67
2022/06/28 14:38:09;;;;;;;3.40;3.20;;;;;;;26.54;51.30;100133.45;214054;1274;141733;-64
2022/06/28 14:43:14;;;;;;;6.90;2.80;;;;;;;26.38;51.50;100139.71;214865;1274;140031;-65
2022/06/28 14:48:18;;;;;;;;;;;;;;;26.25;51.66;100146.11;214797;1276;140221;-67
2022/06/28 14:53:24;;;;;;;3.30;3.00;;;;;;;26.09;51.95;100153.23;215523;1276;127760;-68
2022/06/28 14:58:30;;;;;;;3.80;3.60;;;;;;;26.11;52.21;100156.61;214855;1275;140169;-65
2022/06/28 15:03:34;;;;;;;7.10;3.10;;;;;;;26.13;52.52;100152.95;215367;1274;140368;-65
2022/06/28 15:08:37;;;;;;;2.90;2.70;;;;;;;26.15;52.51;100142.52;215834;1274;139624;-65
2022/06/28 15:13:41;;;;;;;3.80;3.20;;;;;;;26.14;52.68;100143.95;215904;1274;139879;-64
2022/06/28 15:18:45;;;;;;;3.50;3.30;;;;;;;26.25;53.07;100131.25;216047;1274;140709;-65
2022/06/28 15:34:35;;;;;;;5.50;4.90;;;;;;;26.47;52.82;100142.56;215766;1274;140715;-64
2022/06/28 15:39:39;;;;;;;5.20;4.80;;;;;;;26.44;52.83;100143.55;214408;1274;140035;-63
2022/06/28 15:44:43;;;;;;;5.40;4.40;;;;;;;26.41;53.02;100138.80;214505;1274;140032;-65
2022/06/28 15:49:47;;;;;;;6.90;5.10;;;;;;;26.47;53.46;100139.51;213766;1274;139825;-63
2022/06/28 15:54:51;;;;;;;6.80;5.60;;;;;;;26.49;53.15;100133.96;213151;1277;140093;-63
2022/06/28 15:59:54;;;;;;;5.20;4.80;;;;;;;26.41;53.17;100140.53;214633;1274;141683;-64
2022/06/28 16:04:58;;;;;;;6.30;5.80;;;;;;;26.30;53.32;100137.72;213808;1274;139461;-64
2022/06/28 16:10:04;;;;;;;7.70;5.40;;;;;;;26.22;53.51;100138.40;213909;1274;140023;-64
2022/06/28 16:15:09;;;;;;;6.80;6.00;;;;;;;26.16;53.81;100144.33;213991;1274;140689;-64
2022/06/28 16:20:30;;;;;;;6.60;6.10;;;;;;;26.09;53.89;100141.05;213814;1274;140785;-64
2022/06/28 16:25:37;;;;;;;7.80;7.20;;;;;;;26.01;54.13;100143.71;213744;1276;140273;-64
2022/06/28 16:30:55;;;;;;;7.10;6.50;;;;;;;25.96;54.65;100153.48;213838;1274;140412;-64
2022/06/28 16:36:04;;;;;;;7.40;6.90;;;;;;;25.94;54.71;100163.11;213764;1274;141540;-64
2022/06/28 16:41:08;;;;;;;7.30;6.50;;;;;;;26.01;54.62;100162.65;213310;1274;139830;-63
2022/06/28 16:46:13;;;;;;;25.90;7.10;;;;;;;26.04;54.49;100161.08;213038;1274;142317;-65
2022/06/28 16:51:17;;;;;;;7.50;6.90;;;;;;;26.03;54.72;100161.35;213938;1274;142987;-64
2022/06/28 16:56:24;;;;;;;9.90;7.10;;;;;;;25.92;54.45;100164.44;215561;1274;222208;-64
2022/06/28 17:01:33;;;;;;;7.50;6.80;;;;;;;25.80;54.63;100156.65;215878;1274;139591;-65
2022/06/28 17:12:05;;;;;;;10.40;9.40;;;;;;;25.37;55.45;100150.71;214987;1274;140528;-65
2022/06/28 17:17:12;;;;;;;22.30;8.50;;;;;;;25.17;56.09;100134.26;216023;1273;140822;-64
2022/06/28 17:22:20;;;;;;;9.00;8.00;;;;;;;25.02;56.49;100127.43;215984;1274;140318;-64
2022/06/28 17:27:27;;;;;;;10.10;9.20;;;;;;;24.89;56.99;100128.16;215881;1275;140829;-65
2022/06/28 17:32:35;;;;;;;10.30;9.50;;;;;;;24.77;57.79;100127.71;214697;1274;140674;-64
2022/06/28 17:37:40;;;;;;;11.50;10.20;;;;;;;24.71;57.89;100128.39;213417;1274;142136;-65
2022/06/28 17:42:45;;;;;;;14.60;10.10;;;;;;;24.67;58.50;100124.05;213373;1274;140346;-64
2022/06/28 17:47:50;;;;;;;10.80;9.40;;;;;;;24.62;59.09;100129.52;213448;1275;139964;-66
2022/06/28 17:52:55;;;;;;;11.50;10.50;;;;;;;24.52;59.19;100129.15;213323;1274;142316;-65
2022/06/28 17:57:59;;;;;;;12.00;10.40;;;;;;;24.38;59.65;100124.29;214480;1273;140763;-66
2022/06/28 18:03:04;;;;;;;11.30;10.40;;;;;;;24.22;59.94;100117.88;213206;1274;141943;-64
2022/06/28 18:08:10;;;;;;;13.50;10.80;;;;;;;24.06;60.28;100111.09;214024;1273;142140;-65
2022/06/28 18:13:29;;;;;;;12.90;11.80;;;;;;;23.96;60.94;100105.80;213269;1275;142334;-65
2022/06/28 18:18:35;;;;;;;12.00;11.00;;;;;;;23.90;61.23;100106.02;213075;1273;142093;-64
2022/06/28 18:23:43;;;;;;;22.90;12.30;;;;;;;23.83;61.56;100105.48;213678;1273;152033;-64
2022/06/28 18:28:50;;;;;;;15.80;12.30;;;;;;;23.77;61.90;100095.25;213674;1274;141331;-66
2022/06/28 18:33:54;;;;;;;11.90;10.70;;;;;;;23.67;62.13;100086.70;214126;1274;141883;-64
2022/06/28 18:38:59;;;;;;;13.00;11.70;;;;;;;23.54;62.41;100084.17;213665;1274;140283;-65
2022/06/28 18:44:06;;;;;;;16.90;11.60;;;;;;;23.45;62.67;100071.76;214533;1274;140628;-65
2022/06/28 18:49:11;;;;;;;13.00;11.60;;;;;;;23.35;63.04;100054.05;213851;1274;140509;-66
2022/06/28 18:54:18;;;;;;;12.40;11.30;;;;;;;23.26;63.26;100059.02;214099;1274;142259;-65
2022/06/28 18:59:24;;;;;;;11.70;10.50;;;;;;;23.19;63.71;100080.75;214270;1274;141715;-64
2022/06/28 19:04:31;;;;;;;12.80;11.60;;;;;;;23.11;63.85;100088.12;213538;1274;140036;-64
2022/06/28 19:09:36;;;;;;;15.80;10.70;;;;;;;23.00;64.08;100088.64;215898;1274;140316;-64
2022/06/28 19:14:41;;;;;;;16.50;11.30;;;;;;;22.96;64.44;100099.63;215947;1273;140401;-66
2022/06/28 19:19:51;;;;;;;12.50;11.30;;;;;;;22.91;64.54;100115.46;215834;1274;141794;-63
2022/06/28 19:24:58;;;;;;;11.60;10.50;;;;;;;22.81;64.77;100114.48;215257;1274;140658;-64
2022/06/28 19:30:05;;;;;;;13.00;11.90;;;;;;;22.70;65.00;100106.07;215746;1274;140790;-64
2022/06/28 19:35:12;;;;;;;12.20;11.10;;;;;;;22.63;65.25;100131.11;215760;1274;142349;-65
2022/06/28 19:40:21;;;;;;;12.60;11.30;;;;;;;22.55;65.39;100135.33;214355;1274;140924;-64
2022/06/28 19:45:28;;;;;;;14.70;11.40;;;;;;;22.46;65.72;100134.39;214358;1274;141103;-64
2022/06/28 19:50:36;;;;;;;12.20;11.10;;;;;;;22.37;65.82;100147.73;214612;1273;140308;-63
2022/06/28 19:55:41;;;;;;;;;;;;;;;22.28;66.09;100152.98;214393;1274;141443;-64
2022/06/28 20:00:48;;;;;;;11.40;10.10;;;;;;;22.16;66.38;100153.70;214031;1274;127323;-61
2022/06/28 20:05:55;;;;;;;11.40;10.20;;;;;;;22.08;66.60;100159.98;215077;1274;141248;-62
2022/06/28 20:11:00;;;;;;;11.20;9.70;;;;;;;21.93;66.78;100158.24;214220;1274;140556;-65
2022/06/28 20:16:04;;;;;;;20.50;9.00;;;;;;;21.77;67.13;100162.52;214072;1274;140278;-65
2022/06/28 20:21:10;;;;;;;11.70;8.10;;;;;;;21.70;67.31;100173.29;212746;1274;141470;-65
2022/06/28 20:26:15;;;;;;;14.80;7.50;;;;;;;21.57;67.58;100176.52;213166;1274;142116;-64
2022/06/28 20:31:20;;;;;;;13.00;8.00;;;;;;;21.44;67.86;100179.38;214620;1274;140507;-64
2022/06/28 20:36:26;;;;;;;8.00;7.20;;;;;;;21.36;68.18;100175.89;213181;1274;140710;-63
2022/06/28 20:46:58;;;;;;;9.40;7.00;;;;;;;21.27;68.41;100163.60;213172;1274;140940;-63
2022/06/28 20:52:10;;;;;;;9.30;7.10;;;;;;;21.18;68.40;100166.59;214657;1274;139965;-63
2022/06/28 20:57:16;;;;;;;6.50;5.90;;;;;;;21.05;68.63;100168.77;213738;1274;140273;-64
2022/06/28 21:02:20;;;;;;;6.80;6.30;;;;;;;20.98;68.85;100178.85;214341;1274;140143;-63
2022/06/28 21:07:25;;;;;;;6.70;6.20;;;;;;;20.93;68.97;100178.23;215853;1274;140947;-64
2022/06/28 21:12:30;;;;;;;6.80;6.30;;;;;;;20.91;68.92;100185.17;215813;1274;141544;-65
2022/06/28 21:17:34;;;;;;;10.90;7.00;;;;;;;20.84;69.05;100188.35;215777;1274;140980;-64
2022/06/28 21:22:39;;;;;;;8.50;5.50;;;;;;;20.82;69.10;100190.98;215724;1274;141449;-64
2022/06/28 21:27:44;;;;;;;8.10;6.30;;;;;;;20.81;69.12;100179.12;215746;1274;141218;-65
2022/06/28 21:32:49;;;;;;;7.20;6.60;;;;;;;20.82;69.13;100169.85;215726;1274;140814;-65
2022/06/28 21:37:55;;;;;;;7.40;6.80;;;;;;;20.78;69.22;100162.60;214987;1274;140846;-64
2022/06/28 21:43:00;;;;;;;6.90;6.30;;;;;;;20.75;69.31;100171.77;214767;1274;139833;-64
2022/06/28 21:48:05;;;;;;;9.10;8.30;;;;;;;20.70;69.34;100185.48;214544;1274;140521;-63
2022/06/28 21:53:10;;;;;;;6.80;6.30;;;;;;;20.59;69.33;100194.65;214804;1273;140744;-64
2022/06/28 21:58:14;;;;;;;9.30;8.00;;;;;;;20.48;69.44;100208.65;214688;1274;141062;-62
2022/06/28 22:03:18;;;;;;;8.60;6.40;;;;;;;20.41;69.59;100220.38;213728;1274;140975;-63
2022/06/28 22:08:23;;;;;;;7.90;7.10;;;;;;;20.35;69.65;100221.23;213500;1274;140805;-63
2022/06/28 22:13:28;;;;;;;7.20;6.60;;;;;;;20.24;69.71;100228.31;213198;1274;141542;-64
2022/06/28 22:18:34;;;;;;;6.80;6.20;;;;;;;20.19;69.87;100235.45;214534;1274;142095;-63
2022/06/28 22:23:40;;;;;;;8.80;7.90;;;;;;;20.11;69.80;100241.23;213432;1274;143617;-64
2022/06/28 22:28:45;;;;;;;7.80;7.10;;;;;;;20.01;69.80;100251.38;215002;1274;140071;-63
2022/06/28 22:33:49;;;;;;;7.20;6.50;;;;;;;19.91;69.66;100263.10;214165;1274;141088;-62
2022/06/28 22:38:53;;;;;;;7.70;7.10;;;;;;;19.85;69.80;100258.36;213355;1274;141543;-61
2022/06/28 22:43:58;;;;;;;9.00;7.80;;;;;;;19.68;69.73;100259.55;214397;1274;141056;-65
2022/06/28 22:49:03;;;;;;;8.30;7.50;;;;;;;19.39;69.72;100249.88;215139;1274;141632;-63
2022/06/28 22:54:09;;;;;;;10.40;7.20;;;;;;;19.19;70.36;100246.61;213502;1274;142417;-64
2022/06/28 22:59:16;;;;;;;7.80;7.00;;;;;;;19.15;70.60;100248.90;212980;1274;142662;-66
2022/06/28 23:04:20;;;;;;;8.60;7.80;;;;;;;19.13;70.62;100249.66;215862;1273;140375;-65
2022/06/28 23:09:25;;;;;;;6.70;6.00;;;;;;;19.01;70.57;100240.27;216031;1274;140936;-65
2022/06/28 23:14:29;;;;;;;7.10;6.50;;;;;;;18.96;70.65;100239.98;213155;1274;142247;-65
2022/06/28 23:19:46;;;;;;;7.30;6.60;;;;;;;18.94;70.86;100222.81;215769;1274;145184;-65
2022/06/28 23:24:51;;;;;;;7.60;7.00;;;;;;;18.93;70.69;100212.28;215896;1274;141009;-66
2022/06/28 23:29:55;;;;;;;9.00;8.20;;;;;;;18.87;70.64;100213.00;215861;1274;140893;-65
2022/06/28 23:34:59;;;;;;;8.50;7.40;;;;;;;18.78;70.81;100213.15;216072;1274;140485;-65
2022/06/28 23:40:05;;;;;;;8.20;7.50;;;;;;;18.66;70.71;100205.86;215950;1274;141299;-64
2022/06/28 23:45:10;;;;;;;8.60;7.80;;;;;;;18.56;70.76;100190.98;214960;1273;141553;-64